Time;durP1;ratioP1;P1;durP2;ratioP2;P2;SDS_P1;SDS_P2;PMS_P1;PMS_P2;Temp;Humidity;BMP_temperature;BMP_pressure;BME280_temperature;BME280_humidity;BME280_pressure;Samples;Min_cycle;Max_cycle;Signal;HPM_P1;HPM_P2
2022/07/17 00:01:57;;;;;;;1.80;1.60;;;24.20;98.20;;;;;;4067773;29;20572;-74
2022/07/17 00:03:59;;;;;;;2.13;1.63;;;24.20;98.20;;;;;;4066796;29;20669;-75
2022/07/17 00:06:02;;;;;;;2.33;1.48;;;24.20;98.20;;;;;;4067808;29;20557;-74
2022/07/17 00:08:07;;;;;;;2.35;1.50;;;24.20;98.20;;;;;;4052524;29;20291;-74
2022/07/17 00:10:09;;;;;;;3.00;1.60;;;24.20;98.30;;;;;;4067658;29;20220;-75
2022/07/17 00:12:12;;;;;;;2.08;1.48;;;24.20;98.30;;;;;;4067473;29;20212;-75
2022/07/17 00:14:14;;;;;;;2.70;1.60;;;24.20;98.20;;;;;;4067731;29;20652;-75
2022/07/17 00:16:16;;;;;;;2.10;1.40;;;24.20;98.30;;;;;;4067478;29;20678;-74
2022/07/17 00:18:19;;;;;;;3.13;1.55;;;24.20;98.30;;;;;;4067644;29;20236;-75
2022/07/17 00:20:24;;;;;;;1.40;1.30;;;24.20;98.30;;;;;;4067616;29;20220;-75
2022/07/17 00:22:27;;;;;;;3.95;1.73;;;24.10;98.20;;;;;;4067679;29;20224;-75
2022/07/17 00:24:31;;;;;;;2.35;1.40;;;24.10;98.30;;;;;;4064654;29;20269;-75
2022/07/17 00:26:33;;;;;;;1.70;1.27;;;24.10;98.30;;;;;;4062638;29;20666;-75
2022/07/17 00:28:36;;;;;;;2.63;1.52;;;24.20;98.30;;;;;;4067544;29;20217;-75
2022/07/17 00:30:38;;;;;;;2.63;1.70;;;24.10;98.40;;;;;;4066763;29;20232;-75
2022/07/17 00:32:41;;;;;;;2.42;1.90;;;24.10;98.20;;;;;;4051708;29;20229;-75
2022/07/17 00:34:44;;;;;;;3.65;1.55;;;24.10;98.30;;;;;;4055466;29;20260;-75
2022/07/17 00:36:46;;;;;;;1.80;1.50;;;24.10;98.30;;;;;;4067349;29;20239;-75
2022/07/17 00:38:48;;;;;;;2.10;1.48;;;24.10;98.40;;;;;;4051403;29;20248;-75
2022/07/17 00:40:54;;;;;;;2.10;1.48;;;24.10;98.40;;;;;;4053730;29;20734;-74
2022/07/17 00:42:56;;;;;;;2.67;1.50;;;24.10;98.40;;;;;;4067343;29;20228;-74
2022/07/17 00:44:59;;;;;;;3.47;1.63;;;24.10;98.40;;;;;;4066832;29;20216;-74
2022/07/17 00:47:01;;;;;;;3.30;1.48;;;24.10;98.50;;;;;;4066849;29;20244;-75
2022/07/17 00:49:04;;;;;;;1.90;1.52;;;24.10;98.40;;;;;;4066882;29;20276;-75
2022/07/17 00:51:08;;;;;;;3.00;1.52;;;24.10;98.50;;;;;;4066948;29;20240;-75
2022/07/17 00:53:10;;;;;;;2.20;1.60;;;24.10;98.50;;;;;;4052590;29;20649;-75
2022/07/17 00:55:13;;;;;;;1.85;1.35;;;24.10;98.50;;;;;;4051251;29;20285;-75
2022/07/17 00:57:19;;;;;;;3.85;1.48;;;24.10;98.40;;;;;;4051188;29;20221;-75
2022/07/17 00:59:22;;;;;;;1.40;1.30;;;24.10;98.40;;;;;;4051544;29;20629;-75
2022/07/17 01:01:24;;;;;;;2.20;1.50;;;24.10;98.30;;;;;;4051029;29;20229;-74
2022/07/17 01:03:27;;;;;;;1.83;1.23;;;24.10;98.80;;;;;;4051272;29;20277;-77
2022/07/17 01:05:29;;;;;;;2.67;1.60;;;24.00;98.40;;;;;;4051517;29;20297;-75
2022/07/17 01:07:33;;;;;;;2.65;1.40;;;24.10;98.40;;;;;;4051565;29;20229;-75
2022/07/17 01:09:35;;;;;;;2.00;1.40;;;24.00;98.30;;;;;;4050950;29;20225;-75
2022/07/17 01:11:37;;;;;;;1.90;1.50;;;24.00;98.30;;;;;;4066444;29;20225;-75
2022/07/17 01:13:41;;;;;;;2.08;1.63;;;24.00;98.30;;;;;;4066549;29;20225;-76
2022/07/17 01:15:44;;;;;;;1.58;1.30;;;24.00;98.30;;;;;;4066310;29;20217;-76
2022/07/17 01:17:47;;;;;;;4.15;1.40;;;24.00;98.30;;;;;;4066285;29;20244;-76
2022/07/17 01:19:50;;;;;;;3.78;1.48;;;24.00;98.60;;;;;;4066867;29;21090;-76
2022/07/17 01:21:53;;;;;;;1.98;1.55;;;24.00;98.40;;;;;;4066412;29;20761;-76
2022/07/17 01:23:56;;;;;;;1.40;1.30;;;24.00;98.40;;;;;;4066636;29;20639;-76
2022/07/17 01:25:58;;;;;;;2.20;1.50;;;24.00;98.40;;;;;;4060635;29;20628;-76
2022/07/17 01:28:00;;;;;;;2.78;1.60;;;24.00;98.40;;;;;;4050917;29;20216;-76
2022/07/17 01:30:04;;;;;;;1.90;1.48;;;24.00;98.40;;;;;;4050712;29;20228;-75
2022/07/17 01:32:06;;;;;;;1.83;1.50;;;24.00;98.40;;;;;;4064688;29;20221;-76
2022/07/17 01:34:12;;;;;;;2.05;1.50;;;24.00;98.40;;;;;;4054657;29;20221;-75
2022/07/17 01:36:14;;;;;;;2.35;1.60;;;24.00;98.40;;;;;;4051100;29;20221;-76
2022/07/17 01:38:18;;;;;;;3.13;1.58;;;24.00;98.40;;;;;;4050837;29;20244;-76
2022/07/17 01:40:21;;;;;;;3.55;1.70;;;24.00;98.50;;;;;;4050957;29;20273;-76
2022/07/17 01:42:24;;;;;;;2.22;1.60;;;23.90;98.40;;;;;;4050677;29;20250;-76
2022/07/17 01:44:26;;;;;;;1.67;1.20;;;23.90;98.40;;;;;;4050850;29;20221;-76
2022/07/17 01:46:28;;;;;;;2.22;1.30;;;24.00;98.80;;;;;;4050734;29;20221;-76
2022/07/17 01:48:31;;;;;;;2.33;1.48;;;23.90;98.40;;;;;;4050699;29;20272;-75
2022/07/17 01:50:33;;;;;;;4.13;1.70;;;23.90;98.50;;;;;;4050481;29;20249;-76
2022/07/17 01:52:38;;;;;;;2.15;1.35;;;23.90;98.50;;;;;;4050855;29;20284;-76
2022/07/17 01:54:42;;;;;;;2.35;1.63;;;24.00;98.60;;;;;;4050396;29;20259;-76
2022/07/17 01:56:44;;;;;;;2.13;1.42;;;23.90;98.40;;;;;;4065888;29;20299;-75
2022/07/17 01:58:47;;;;;;;1.83;1.50;;;23.90;98.50;;;;;;4066089;29;20248;-75
2022/07/17 02:00:50;;;;;;;2.25;1.40;;;23.90;98.50;;;;;;4066309;29;20204;-76
2022/07/17 02:02:53;;;;;;;1.70;1.35;;;23.90;98.50;;;;;;4066368;29;20272;-75
2022/07/17 02:04:55;;;;;;;2.45;1.73;;;23.90;98.50;;;;;;4066271;29;20272;-76
2022/07/17 02:06:57;;;;;;;3.33;1.60;;;23.90;98.50;;;;;;4065738;29;20271;-76
2022/07/17 02:08:59;;;;;;;2.70;1.60;;;23.90;98.60;;;;;;4066140;29;20296;-76
2022/07/17 02:11:03;;;;;;;2.78;1.55;;;23.90;98.60;;;;;;4066028;29;20684;-76
2022/07/17 02:13:05;;;;;;;2.17;1.50;;;23.90;98.60;;;;;;4066152;29;20232;-76
2022/07/17 02:15:08;;;;;;;2.13;1.48;;;23.90;98.60;;;;;;4065988;29;20236;-76
2022/07/17 02:17:11;;;;;;;1.90;1.38;;;23.90;98.60;;;;;;4066027;29;20280;-75
2022/07/17 02:19:13;;;;;;;2.45;1.42;;;23.90;98.70;;;;;;4065806;29;20248;-76
2022/07/17 02:21:15;;;;;;;1.60;1.23;;;23.90;98.70;;;;;;4050975;29;20657;-76
2022/07/17 02:23:18;;;;;;;2.85;1.52;;;23.90;98.70;;;;;;4064954;29;20284;-76
2022/07/17 02:25:20;;;;;;;1.92;1.42;;;23.80;98.60;;;;;;4065068;29;20673;-76
2022/07/17 02:27:24;;;;;;;2.95;1.42;;;23.90;98.70;;;;;;4051229;29;20224;-76
2022/07/17 02:29:26;;;;;;;3.03;1.27;;;23.90;98.60;;;;;;4053548;29;20209;-76
2022/07/17 02:31:28;;;;;;;2.60;1.40;;;23.80;98.60;;;;;;4058206;29;20652;-76
2022/07/17 02:33:30;;;;;;;2.33;1.70;;;23.80;98.60;;;;;;4061674;29;20320;-76
2022/07/17 02:35:33;;;;;;;2.50;1.65;;;23.80;98.60;;;;;;4068962;29;20224;-75
2022/07/17 02:37:35;;;;;;;2.20;1.63;;;23.80;98.60;;;;;;4068705;29;20220;-76
2022/07/17 02:39:51;;;;;;;2.25;1.48;;;23.80;98.60;;;;;;4069092;29;20272;-75
2022/07/17 02:41:54;;;;;;;2.05;1.60;;;23.80;98.50;;;;;;4068979;29;20276;-76
2022/07/17 02:43:58;;;;;;;1.60;1.17;;;23.80;98.50;;;;;;4068982;29;20280;-76
2022/07/17 02:46:01;;;;;;;2.67;1.65;;;23.80;98.60;;;;;;4068665;29;20216;-76
2022/07/17 02:48:03;;;;;;;2.15;1.50;;;23.80;98.60;;;;;;4068678;29;20689;-75
2022/07/17 02:50:08;;;;;;;1.67;1.40;;;23.80;98.60;;;;;;4068784;29;20773;-76
2022/07/17 02:52:10;;;;;;;3.22;1.35;;;23.80;98.70;;;;;;4068752;29;20276;-76
2022/07/17 02:54:12;;;;;;;4.07;1.63;;;23.80;98.60;;;;;;4069350;29;20224;-76
2022/07/17 02:56:15;;;;;;;2.50;1.58;;;23.80;98.60;;;;;;4068933;29;20220;-75
2022/07/17 02:58:17;;;;;;;2.78;1.55;;;23.80;98.60;;;;;;4068361;29;20220;-76
2022/07/17 03:00:21;;;;;;;1.65;1.30;;;23.80;98.60;;;;;;4068147;29;20236;-76
2022/07/17 03:02:23;;;;;;;3.85;1.70;;;23.80;98.60;;;;;;4068603;29;20291;-75
2022/07/17 03:04:25;;;;;;;1.85;1.33;;;23.80;98.60;;;;;;4068966;29;20272;-76
2022/07/17 03:06:28;;;;;;;2.35;1.60;;;23.80;98.70;;;;;;4068452;29;20690;-76
2022/07/17 03:08:30;;;;;;;1.70;1.60;;;23.70;98.60;;;;;;4068543;29;20689;-75
2022/07/17 03:10:33;;;;;;;2.10;1.40;;;23.80;98.70;;;;;;4068215;29;20634;-76
2022/07/17 03:12:35;;;;;;;3.13;1.58;;;23.70;98.60;;;;;;4068502;29;20220;-75
2022/07/17 03:14:37;;;;;;;3.47;1.65;;;23.70;98.70;;;;;;4068856;29;20232;-76
2022/07/17 03:16:41;;;;;;;3.00;1.95;;;23.70;98.70;;;;;;4068500;29;20268;-75
2022/07/17 03:18:43;;;;;;;2.15;1.70;;;23.70;99.10;;;;;;4067991;29;20220;-76
2022/07/17 03:20:46;;;;;;;4.18;1.70;;;23.70;98.70;;;;;;4068085;29;20272;-76
2022/07/17 03:22:48;;;;;;;1.85;1.38;;;23.70;98.70;;;;;;4052700;29;20706;-76
2022/07/17 03:24:50;;;;;;;2.47;1.52;;;23.80;98.80;;;;;;4053020;29;20294;-75
2022/07/17 03:26:53;;;;;;;3.30;1.67;;;23.70;98.70;;;;;;4065698;29;20212;-76
2022/07/17 03:28:55;;;;;;;3.92;1.70;;;23.70;98.70;;;;;;4055967;29;20217;-75
2022/07/17 03:30:57;;;;;;;1.88;1.45;;;23.70;98.70;;;;;;4054977;29;20217;-76
2022/07/17 03:33:01;;;;;;;2.03;1.33;;;23.70;98.70;;;;;;4055586;29;20216;-75
2022/07/17 03:35:04;;;;;;;2.55;1.58;;;23.70;98.70;;;;;;4052131;29;20221;-76
2022/07/17 03:37:06;;;;;;;2.30;1.50;;;23.70;98.70;;;;;;4052379;29;20274;-76
2022/07/17 03:39:09;;;;;;;2.70;1.67;;;23.70;98.80;;;;;;4051598;29;20313;-76
2022/07/17 03:41:12;;;;;;;3.40;1.60;;;23.70;98.80;;;;;;4052858;29;20233;-76
2022/07/17 03:43:14;;;;;;;3.03;1.60;;;23.70;98.80;;;;;;4052494;29;20221;-77
2022/07/17 03:45:16;;;;;;;2.75;1.52;;;23.70;98.80;;;;;;4052649;29;20729;-74
2022/07/17 03:47:18;;;;;;;2.45;1.50;;;23.70;98.80;;;;;;4052557;29;20225;-75
2022/07/17 03:49:22;;;;;;;3.10;1.70;;;23.70;98.80;;;;;;4067648;29;20879;-75
2022/07/17 03:51:25;;;;;;;2.50;1.67;;;23.60;98.80;;;;;;4067534;29;20252;-74
2022/07/17 03:53:27;;;;;;;2.35;1.35;;;23.60;98.90;;;;;;4067850;29;20220;-74
2022/07/17 03:55:29;;;;;;;2.92;1.58;;;23.60;98.90;;;;;;4067707;29;20288;-74
2022/07/17 03:57:32;;;;;;;1.88;1.40;;;23.60;98.80;;;;;;4067801;29;20542;-74
2022/07/17 03:59:34;;;;;;;1.73;1.40;;;23.60;98.90;;;;;;4067743;29;20761;-75
2022/07/17 04:01:36;;;;;;;4.53;1.75;;;23.60;98.80;;;;;;4067650;29;20224;-75
2022/07/17 04:03:39;;;;;;;2.80;1.58;;;23.60;98.90;;;;;;4067941;29;20279;-75
2022/07/17 04:05:42;;;;;;;2.50;1.48;;;23.60;98.90;;;;;;4068092;29;20224;-75
2022/07/17 04:07:45;;;;;;;3.15;1.70;;;23.60;98.90;;;;;;4067732;29;20220;-74
2022/07/17 04:09:47;;;;;;;2.72;1.70;;;23.60;98.90;;;;;;4067652;29;20557;-75
2022/07/17 04:11:50;;;;;;;2.92;1.60;;;23.60;98.90;;;;;;4067597;29;20275;-75
2022/07/17 04:13:52;;;;;;;2.45;1.75;;;23.60;98.90;;;;;;4067775;29;20564;-75
2022/07/17 04:15:55;;;;;;;2.85;1.63;;;23.60;98.90;;;;;;4067728;29;20733;-75
2022/07/17 04:17:58;;;;;;;1.77;1.38;;;23.60;98.90;;;;;;4067617;29;20221;-75
2022/07/17 04:20:00;;;;;;;1.73;1.50;;;23.60;98.90;;;;;;4067296;29;20776;-75
2022/07/17 04:22:04;;;;;;;2.78;1.42;;;23.60;99.00;;;;;;4051783;29;20277;-75
2022/07/17 04:24:06;;;;;;;1.90;1.52;;;23.60;99.00;;;;;;4051978;29;20292;-75
2022/07/17 04:26:08;;;;;;;2.80;1.80;;;23.60;98.90;;;;;;4058959;29;20213;-75
2022/07/17 04:28:11;;;;;;;2.22;1.45;;;23.60;98.90;;;;;;4056400;29;20272;-75
2022/07/17 04:30:13;;;;;;;2.67;1.55;;;23.60;98.90;;;;;;4056266;29;20965;-75
2022/07/17 04:32:16;;;;;;;3.05;1.42;;;23.50;98.80;;;;;;4052283;29;20632;-75
2022/07/17 04:34:18;;;;;;;2.22;1.27;;;23.50;98.80;;;;;;4064893;29;20216;-74
2022/07/17 04:36:21;;;;;;;3.90;1.63;;;23.50;98.90;;;;;;4067292;29;20228;-75
2022/07/17 04:38:25;;;;;;;1.30;1.20;;;23.50;98.90;;;;;;4067365;29;20228;-74
2022/07/17 04:40:27;;;;;;;2.72;2.00;;;23.50;98.90;;;;;;4066565;29;20241;-77
2022/07/17 04:42:29;;;;;;;2.50;1.63;;;23.50;98.90;;;;;;4067315;29;20228;-75
2022/07/17 04:44:31;;;;;;;2.25;1.52;;;23.60;98.90;;;;;;4067027;29;20268;-75
2022/07/17 04:46:34;;;;;;;2.17;1.55;;;23.50;98.80;;;;;;4051523;29;20221;-75
2022/07/17 04:48:36;;;;;;;2.30;1.50;;;23.50;98.90;;;;;;4066874;29;20216;-74
2022/07/17 04:50:38;;;;;;;2.28;1.63;;;23.50;99.00;;;;;;4066473;29;20630;-75
2022/07/17 04:52:41;;;;;;;3.03;1.52;;;23.50;98.90;;;;;;4066858;29;20280;-75
2022/07/17 04:54:45;;;;;;;2.75;1.50;;;23.60;99.00;;;;;;4066860;29;20224;-74
2022/07/17 04:56:47;;;;;;;2.58;1.55;;;23.60;98.80;;;;;;4051451;29;20626;-75
2022/07/17 04:58:49;;;;;;;1.90;1.42;;;23.50;98.90;;;;;;4051660;29;20217;-75
2022/07/17 05:00:51;;;;;;;2.47;1.58;;;23.50;99.00;;;;;;4051409;29;20602;-75
2022/07/17 05:02:54;;;;;;;3.28;1.60;;;23.50;99.40;;;;;;4051320;29;20681;-75
2022/07/17 05:04:56;;;;;;;2.60;1.40;;;23.50;99.00;;;;;;4051438;29;20626;-77
2022/07/17 05:06:58;;;;;;;2.33;1.40;;;23.50;99.00;;;;;;4051650;29;20276;-75
2022/07/17 05:09:01;;;;;;;3.58;1.40;;;23.50;99.00;;;;;;4051287;29;20233;-75
2022/07/17 05:11:04;;;;;;;2.28;1.40;;;23.50;99.00;;;;;;4051104;29;20222;-75
2022/07/17 05:13:07;;;;;;;3.30;1.67;;;23.50;99.00;;;;;;4051346;29;20265;-75
2022/07/17 05:15:09;;;;;;;2.88;1.50;;;23.50;99.00;;;;;;4051011;29;20221;-75
2022/07/17 05:17:12;;;;;;;3.20;1.70;;;23.50;99.00;;;;;;4051267;29;20621;-75
2022/07/17 05:19:14;;;;;;;1.67;1.38;;;23.50;99.00;;;;;;4051306;29;20356;-75
2022/07/17 05:21:16;;;;;;;2.00;1.42;;;23.50;99.00;;;;;;4051363;29;20240;-75
2022/07/17 05:23:19;;;;;;;2.33;1.35;;;23.50;99.10;;;;;;4050961;29;20269;-76
2022/07/17 05:25:21;;;;;;;3.47;1.70;;;23.50;98.90;;;;;;4051873;29;20221;-76
2022/07/17 05:27:24;;;;;;;3.13;1.40;;;23.50;99.00;;;;;;4057900;29;20217;-76
2022/07/17 05:29:27;;;;;;;2.22;1.70;;;23.50;99.00;;;;;;4061461;29;20287;-76
2022/07/17 05:31:29;;;;;;;4.28;1.80;;;23.50;99.00;;;;;;4066857;29;20981;-76
2022/07/17 05:33:32;;;;;;;2.53;1.55;;;23.50;98.90;;;;;;4066561;29;20267;-76
2022/07/17 05:35:34;;;;;;;3.28;1.58;;;23.50;99.00;;;;;;4066146;29;20224;-76
2022/07/17 05:37:36;;;;;;;3.22;1.83;;;23.50;99.00;;;;;;4051348;29;20633;-76
2022/07/17 05:39:39;;;;;;;2.33;1.70;;;23.50;99.40;;;;;;4051085;29;20276;-76
2022/07/17 05:41:41;;;;;;;3.00;1.45;;;23.50;99.00;;;;;;4050801;29;20340;-76
2022/07/17 05:43:45;;;;;;;2.40;1.70;;;23.50;99.10;;;;;;4050944;29;20224;-76
2022/07/17 05:45:47;;;;;;;1.63;1.50;;;23.50;99.10;;;;;;4050616;29;20225;-76
2022/07/17 05:47:50;;;;;;;2.90;1.40;;;23.50;99.10;;;;;;4052863;29;20225;-76
2022/07/17 05:49:52;;;;;;;2.13;1.42;;;23.50;99.10;;;;;;4050039;29;20321;-76
2022/07/17 05:51:54;;;;;;;2.88;1.60;;;23.50;99.00;;;;;;4050677;29;20268;-76
2022/07/17 05:53:57;;;;;;;4.13;1.67;;;23.50;99.10;;;;;;4050892;29;20264;-76
2022/07/17 05:56:00;;;;;;;3.17;1.60;;;23.50;99.00;;;;;;4050908;29;20281;-76
2022/07/17 05:58:02;;;;;;;1.90;1.50;;;23.50;98.90;;;;;;4050759;29;20232;-76
2022/07/17 06:00:08;;;;;;;2.50;1.73;;;23.50;99.30;;;;;;4050439;29;20225;-76
2022/07/17 06:02:10;;;;;;;2.92;1.58;;;23.50;98.80;;;;;;4065413;29;20232;-76
2022/07/17 06:04:12;;;;;;;2.53;1.80;;;23.50;98.80;;;;;;4066161;29;20213;-76
2022/07/17 06:06:15;;;;;;;2.38;1.50;;;23.50;99.20;;;;;;4065940;29;20224;-76
2022/07/17 06:08:17;;;;;;;2.83;1.63;;;23.50;98.90;;;;;;4066362;29;20276;-76
2022/07/17 06:10:19;;;;;;;2.85;1.75;;;23.60;98.90;;;;;;4066042;29;20632;-76
2022/07/17 06:12:21;;;;;;;2.33;1.67;;;23.50;98.90;;;;;;4065893;29;20728;-76
2022/07/17 06:14:24;;;;;;;2.10;1.50;;;23.50;98.90;;;;;;4066255;29;20271;-76
2022/07/17 06:16:28;;;;;;;3.55;1.60;;;23.50;98.90;;;;;;4066072;29;20268;-76
2022/07/17 06:18:30;;;;;;;2.70;1.70;;;23.50;98.90;;;;;;4053207;29;20229;-76
2022/07/17 06:20:33;;;;;;;1.92;1.25;;;23.50;98.90;;;;;;4050051;29;21942;-76
2022/07/17 06:22:35;;;;;;;3.80;1.73;;;23.50;98.90;;;;;;4050572;29;20225;-76
2022/07/17 06:24:37;;;;;;;2.13;1.30;;;23.50;98.80;;;;;;4050656;29;20213;-76
2022/07/17 06:26:40;;;;;;;1.83;1.42;;;23.50;98.90;;;;;;4059342;29;20220;-76
2022/07/17 06:28:42;;;;;;;1.80;1.40;;;23.50;99.20;;;;;;4051894;29;20229;-76
2022/07/17 06:30:44;;;;;;;2.58;1.73;;;23.50;98.90;;;;;;4050625;29;20217;-76
2022/07/17 06:32:48;;;;;;;3.15;1.58;;;23.60;98.90;;;;;;4051991;29;20280;-76
2022/07/17 06:34:50;;;;;;;2.75;1.30;;;23.50;98.80;;;;;;4066121;29;20992;-76
2022/07/17 06:36:52;;;;;;;2.25;1.55;;;23.50;98.80;;;;;;4066034;29;20685;-76
2022/07/17 06:38:55;;;;;;;1.98;1.60;;;23.50;98.80;;;;;;4066088;29;20632;-76
2022/07/17 06:40:57;;;;;;;3.70;1.55;;;23.60;98.80;;;;;;4065697;29;20295;-76
2022/07/17 06:42:59;;;;;;;2.72;1.58;;;23.50;98.80;;;;;;4065867;29;20245;-77
2022/07/17 06:45:01;;;;;;;2.90;1.33;;;23.50;98.70;;;;;;4065787;29;20291;-76
2022/07/17 06:47:04;;;;;;;1.98;1.42;;;23.50;99.10;;;;;;4066078;29;20280;-76
2022/07/17 06:49:07;;;;;;;3.78;1.58;;;23.50;98.70;;;;;;4065895;29;20737;-76
2022/07/17 06:51:10;;;;;;;3.45;1.35;;;23.60;98.90;;;;;;4065561;29;20232;-76
2022/07/17 06:53:12;;;;;;;2.08;1.58;;;23.50;98.80;;;;;;4065607;29;20224;-76
2022/07/17 06:55:14;;;;;;;2.58;1.67;;;23.60;98.90;;;;;;4065954;29;20612;-76
2022/07/17 06:57:17;;;;;;;3.25;1.67;;;23.50;98.70;;;;;;4065625;29;20268;-76
2022/07/17 06:59:19;;;;;;;2.83;1.40;;;23.50;98.60;;;;;;4065785;29;20221;-76
2022/07/17 07:01:22;;;;;;;3.63;1.63;;;23.50;98.60;;;;;;4065693;29;20240;-76
2022/07/17 07:03:24;;;;;;;2.30;1.55;;;23.50;98.60;;;;;;4065831;29;20244;-76
2022/07/17 07:05:28;;;;;;;2.97;1.55;;;23.60;98.70;;;;;;4065714;29;20611;-76
2022/07/17 07:07:30;;;;;;;2.45;1.45;;;23.50;98.60;;;;;;4065632;29;20212;-76
2022/07/17 07:09:33;;;;;;;2.30;1.38;;;23.50;98.60;;;;;;4065298;29;20256;-73
2022/07/17 07:11:35;;;;;;;2.47;1.50;;;23.60;98.70;;;;;;4065426;29;20216;-73
2022/07/17 07:13:38;;;;;;;2.28;1.45;;;23.60;98.70;;;;;;4066736;29;20220;-74
2022/07/17 07:15:40;;;;;;;3.35;1.50;;;23.60;98.70;;;;;;4068562;29;20300;-74
2022/07/17 07:17:42;;;;;;;2.13;1.40;;;23.60;98.70;;;;;;4052830;29;20225;-75
2022/07/17 07:19:44;;;;;;;2.35;1.40;;;23.60;98.80;;;;;;4052957;29;20233;-75
2022/07/17 07:21:48;;;;;;;3.35;1.45;;;23.50;98.70;;;;;;4052684;29;20285;-75
2022/07/17 07:23:50;;;;;;;2.85;1.42;;;23.60;98.70;;;;;;4052967;29;20218;-75
2022/07/17 07:25:53;;;;;;;2.05;1.55;;;23.60;98.70;;;;;;4054479;29;20218;-74
2022/07/17 07:27:55;;;;;;;4.70;1.60;;;23.60;98.80;;;;;;4052838;29;20225;-75
2022/07/17 07:29:57;;;;;;;2.55;1.60;;;23.60;98.80;;;;;;4052858;29;20243;-75
2022/07/17 07:32:00;;;;;;;2.92;1.60;;;23.60;98.80;;;;;;4052765;29;20221;-75
2022/07/17 07:34:02;;;;;;;2.38;1.50;;;23.60;98.80;;;;;;4063679;29;20217;-75
2022/07/17 07:36:05;;;;;;;1.83;1.50;;;23.60;98.70;;;;;;4068380;29;20292;-74
2022/07/17 07:38:09;;;;;;;2.42;1.58;;;23.60;98.70;;;;;;4068336;29;20288;-74
2022/07/17 07:40:12;;;;;;;3.03;1.58;;;23.60;98.70;;;;;;4068337;29;20630;-75
2022/07/17 07:42:14;;;;;;;2.33;1.40;;;23.60;98.50;;;;;;4068009;29;20288;-75
2022/07/17 07:44:17;;;;;;;3.42;1.60;;;23.60;98.70;;;;;;4068330;29;20670;-75
2022/07/17 07:46:20;;;;;;;1.67;1.33;;;23.60;98.60;;;;;;4067763;29;20627;-75
2022/07/17 07:48:22;;;;;;;2.35;1.52;;;23.60;98.70;;;;;;4067946;29;20224;-75
2022/07/17 07:50:26;;;;;;;2.05;1.48;;;23.60;98.70;;;;;;4067775;29;20236;-75
2022/07/17 07:52:28;;;;;;;3.40;1.52;;;23.60;98.60;;;;;;4067827;29;20221;-75
2022/07/17 07:54:32;;;;;;;2.72;1.65;;;23.60;98.50;;;;;;4068014;29;20276;-75
2022/07/17 07:56:36;;;;;;;5.68;1.67;;;23.60;98.50;;;;;;4068013;29;20267;-75
2022/07/17 07:58:38;;;;;;;1.95;1.20;;;23.70;98.80;;;;;;4067861;29;20280;-75
2022/07/17 08:00:41;;;;;;;2.03;1.30;;;23.70;98.60;;;;;;4067592;29;20228;-75
2022/07/17 08:02:43;;;;;;;2.83;1.60;;;23.60;98.50;;;;;;4067667;29;20622;-75
2022/07/17 08:04:45;;;;;;;2.83;1.48;;;23.70;98.60;;;;;;4052621;29;20273;-75
2022/07/17 08:06:48;;;;;;;2.88;1.70;;;23.70;98.60;;;;;;4067739;29;20670;-75
2022/07/17 08:08:50;;;;;;;3.67;1.50;;;23.70;98.50;;;;;;4052340;29;20280;-75
2022/07/17 08:10:54;;;;;;;2.42;1.35;;;23.60;98.50;;;;;;4052232;29;20625;-74
2022/07/17 08:12:56;;;;;;;2.97;1.60;;;23.70;98.70;;;;;;4051934;29;20218;-74
2022/07/17 08:14:58;;;;;;;2.25;1.48;;;23.70;98.60;;;;;;4052244;29;20232;-75
2022/07/17 08:17:00;;;;;;;3.47;1.50;;;23.70;98.80;;;;;;4052189;29;20632;-75
2022/07/17 08:19:03;;;;;;;2.00;1.42;;;23.70;98.90;;;;;;4052149;29;20681;-75
2022/07/17 08:21:06;;;;;;;2.38;1.52;;;23.70;98.50;;;;;;4051857;29;20272;-74
2022/07/17 08:23:09;;;;;;;1.83;1.30;;;23.70;98.50;;;;;;4052015;29;20245;-75
2022/07/17 08:25:11;;;;;;;1.95;1.30;;;23.70;98.50;;;;;;4056489;29;20653;-75
2022/07/17 08:27:15;;;;;;;3.50;1.42;;;23.70;98.50;;;;;;4051924;29;20229;-75
2022/07/17 08:29:17;;;;;;;2.65;1.55;;;23.70;98.50;;;;;;4052171;29;20997;-75
2022/07/17 08:31:19;;;;;;;2.97;1.58;;;23.70;98.60;;;;;;4052321;29;20221;-75
2022/07/17 08:33:22;;;;;;;2.72;1.50;;;23.70;98.50;;;;;;4066199;29;20281;-75
2022/07/17 08:35:24;;;;;;;2.35;1.58;;;23.70;98.50;;;;;;4067117;29;20642;-75
2022/07/17 08:37:26;;;;;;;2.20;1.45;;;23.70;98.60;;;;;;4067264;29;20693;-75
2022/07/17 08:39:29;;;;;;;2.80;1.60;;;23.80;98.20;;;;;;4067060;29;20220;-75
2022/07/17 08:41:36;;;;;;;2.97;1.55;;;23.80;98.60;;;;;;4067533;29;20678;-75
2022/07/17 08:43:41;;;;;;;2.60;1.27;;;23.80;98.50;;;;;;4067232;29;20224;-75
2022/07/17 08:45:44;;;;;;;2.13;1.52;;;23.80;98.50;;;;;;4067277;29;20228;-75
2022/07/17 08:47:47;;;;;;;2.20;1.42;;;23.80;98.40;;;;;;4067228;29;20217;-75
2022/07/17 08:49:50;;;;;;;3.00;1.50;;;23.80;98.20;;;;;;4066849;29;20221;-75
2022/07/17 08:51:55;;;;;;;2.65;1.48;;;23.80;98.60;;;;;;4066897;29;20224;-76
2022/07/17 08:53:58;;;;;;;2.70;1.60;;;23.80;98.60;;;;;;4066739;29;20224;-75
2022/07/17 08:56:00;;;;;;;2.88;1.83;;;23.80;98.50;;;;;;4067136;29;20221;-75
2022/07/17 08:58:04;;;;;;;2.75;1.52;;;23.80;98.70;;;;;;4066870;29;20248;-75
2022/07/17 09:00:10;;;;;;;3.50;1.50;;;23.80;98.50;;;;;;4067062;29;20232;-75
2022/07/17 09:02:12;;;;;;;3.25;1.80;;;23.80;98.50;;;;;;4066770;29;20240;-75
2022/07/17 09:04:14;;;;;;;4.20;1.90;;;23.80;98.70;;;;;;4067173;29;20220;-75
2022/07/17 09:06:20;;;;;;;2.15;1.50;;;23.80;98.40;;;;;;4051346;29;20209;-75
2022/07/17 09:08:24;;;;;;;2.72;1.60;;;23.80;98.40;;;;;;4066172;29;20264;-74
2022/07/17 09:10:37;;;;;;;1.50;1.40;;;23.90;98.30;;;;;;4066871;29;20275;-75
2022/07/17 09:12:39;;;;;;;2.45;1.38;;;23.80;98.50;;;;;;4066932;29;20224;-75
2022/07/17 09:14:42;;;;;;;3.45;1.65;;;23.90;98.40;;;;;;4066665;29;20221;-75
2022/07/17 09:16:55;;;;;;;2.28;1.17;;;23.90;99.10;;;;;;4066506;29;20284;-75
2022/07/17 09:18:59;;;;;;;3.08;1.67;;;23.90;98.50;;;;;;4066992;29;20228;-75
2022/07/17 09:21:01;;;;;;;1.75;1.30;;;23.90;98.50;;;;;;4060844;29;20233;-74
2022/07/17 09:23:06;;;;;;;2.30;1.40;;;23.90;98.70;;;;;;4051258;29;20244;-75
2022/07/17 09:25:08;;;;;;;1.75;1.27;;;23.90;98.60;;;;;;4055567;29;20217;-75
2022/07/17 09:27:13;;;;;;;2.33;1.65;;;23.90;98.70;;;;;;4066392;29;20287;-74
2022/07/17 09:29:16;;;;;;;2.50;1.55;;;23.90;98.70;;;;;;4066417;29;20228;-75
2022/07/17 09:31:26;;;;;;;2.33;1.42;;;23.90;98.70;;;;;;4067002;29;20228;-75
2022/07/17 09:33:30;;;;;;;3.90;1.65;;;23.90;98.40;;;;;;4066598;29;20256;-75
2022/07/17 09:35:32;;;;;;;2.63;1.50;;;23.90;98.50;;;;;;4066452;29;20264;-74
2022/07/17 09:37:36;;;;;;;3.33;1.48;;;23.90;98.50;;;;;;4066406;29;20224;-74
2022/07/17 09:39:39;;;;;;;2.10;1.45;;;23.90;98.70;;;;;;4066126;29;20228;-74
2022/07/17 09:41:41;;;;;;;2.72;1.65;;;23.90;98.60;;;;;;4066329;29;20232;-74
2022/07/17 09:43:47;;;;;;;2.75;1.38;;;23.90;98.70;;;;;;4066283;29;20244;-74
2022/07/17 09:45:49;;;;;;;2.25;1.40;;;24.00;98.80;;;;;;4066400;29;20267;-75
2022/07/17 09:47:54;;;;;;;1.75;1.35;;;24.00;98.80;;;;;;4066129;29;20224;-75
2022/07/17 09:49:59;;;;;;;3.38;1.27;;;24.00;99.00;;;;;;4066052;29;20666;-75
2022/07/17 09:52:03;;;;;;;2.70;1.33;;;24.00;98.80;;;;;;4066292;29;20725;-75
2022/07/17 09:54:07;;;;;;;2.42;1.42;;;24.00;98.60;;;;;;4064296;29;20555;-75
2022/07/17 09:56:10;;;;;;;3.45;1.40;;;24.00;98.70;;;;;;4066190;29;20217;-74
2022/07/17 09:58:12;;;;;;;1.88;1.50;;;24.00;98.60;;;;;;4066465;29;20232;-75
2022/07/17 10:00:16;;;;;;;2.22;1.30;;;24.00;98.80;;;;;;4066479;29;20693;-75
2022/07/17 10:02:21;;;;;;;3.15;1.45;;;24.00;98.70;;;;;;4066213;29;20279;-75
2022/07/17 10:04:23;;;;;;;2.08;1.50;;;24.00;98.80;;;;;;4065891;29;20275;-75
2022/07/17 10:06:28;;;;;;;2.55;1.65;;;24.00;98.90;;;;;;4065784;29;20228;-75
2022/07/17 10:08:33;;;;;;;3.20;1.80;;;24.00;99.00;;;;;;4050249;29;20272;-75
2022/07/17 10:10:36;;;;;;;2.05;1.40;;;24.10;98.50;;;;;;4066216;29;20228;-75
2022/07/17 10:12:40;;;;;;;2.28;1.30;;;24.10;98.80;;;;;;4066283;29;20276;-75
2022/07/17 10:14:43;;;;;;;3.10;1.60;;;24.10;98.80;;;;;;4066126;29;20224;-74
2022/07/17 10:16:45;;;;;;;2.67;1.50;;;24.10;98.90;;;;;;4066249;29;20681;-75
2022/07/17 10:18:52;;;;;;;2.45;1.40;;;24.10;99.00;;;;;;4066172;29;20224;-75
2022/07/17 10:20:54;;;;;;;1.73;1.20;;;24.10;98.90;;;;;;4056288;29;20217;-75
2022/07/17 10:22:57;;;;;;;2.45;1.55;;;24.10;98.90;;;;;;4052760;29;20245;-75
2022/07/17 10:25:05;;;;;;;3.25;1.73;;;24.10;98.90;;;;;;4053494;29;20290;-75
2022/07/17 10:27:18;;;;;;;3.13;1.40;;;24.10;98.90;;;;;;4065104;29;20228;-75
2022/07/17 10:29:33;;;;;;;2.08;1.67;;;24.10;98.80;;;;;;4065919;29;20231;-74
2022/07/17 10:31:36;;;;;;;2.65;1.40;;;24.10;99.20;;;;;;4066002;29;20260;-74
2022/07/17 10:33:38;;;;;;;3.20;1.75;;;24.10;98.90;;;;;;4058530;29;20213;-75
2022/07/17 10:35:47;;;;;;;2.97;1.48;;;24.10;98.80;;;;;;4065711;29;20224;-75
2022/07/17 10:37:49;;;;;;;2.22;1.42;;;24.10;99.00;;;;;;4065717;29;20272;-75
2022/07/17 10:40:05;;;;;;;2.35;1.40;;;24.20;99.00;;;;;;4065721;29;20597;-75
2022/07/17 10:42:08;;;;;;;2.35;1.30;;;24.20;99.10;;;;;;4065570;29;20228;-74